Station History

Weather Underground - logo

Station Historical Data
Daily Summary for February 13, 2018 Units:  Metric    English   Both
« Previous Day
Next Day »
Daily Weekly Monthly Yearly Custom
  High: Low: Average:
Temperature: 17.5 °C 1.1 °C 9.9 °C
Dew Point: 5.2 °C -0.4 °C 2.7 °C
Humidity: 92 % 37 % 64 %
Wind Speed: 11.1 km/h 0 km/h 1.9 km/h
Wind Gust: 11.1 km/h - -
Wind:- - WNW
Pressure: 1021.9 hPa 1015.5 hPa -
Precipitation: 0 mm    
Historical Graphs
 
 
Tabular Data for February 13, 2018
Time Temperature Dew Point Pressure Wind Wind Speed Wind Gust Humidity Rainfall Rate (Hourly)
00:03 4.4 °C 2.6 °C 1015.8 hPa Calm     88 % 0 mm
00:08 4.3 °C 2.4 °C 1015.8 hPa Calm     88 % 0 mm
00:13 4.2 °C 2.3 °C 1015.5 hPa Calm     88 % 0 mm
00:18 4.1 °C 2.2 °C 1015.5 hPa Calm     88 % 0 mm
00:23 4 °C 2.2 °C 1015.8 hPa Calm     88 % 0 mm
00:28 3.9 °C 2.3 °C 1015.8 hPa Calm     89 % 0 mm
00:33 4 °C 2.5 °C 1015.8 hPa Calm     90 % 0 mm
00:38 4.1 °C 2.6 °C 1015.8 hPa Calm     90 % 0 mm
00:43 4.1 °C 2.6 °C 1015.8 hPa Calm     90 % 0 mm
00:48 4.1 °C 2.4 °C 1015.8 hPa Calm     89 % 0 mm
00:53 4.1 °C 2.6 °C 1015.8 hPa Calm     90 % 0 mm
00:58 4.2 °C 2.7 °C 1016.1 hPa Calm     90 % 0 mm
01:03 4.4 °C 2.9 °C 1016.1 hPa Calm     90 % 0 mm
01:08 4.5 °C 2.8 °C 1016.1 hPa Calm     89 % 0 mm
01:14 4.5 °C 2.8 °C 1016.1 hPa NNE 1.9 km/h   89 % 0 mm
01:19 4.4 °C 2.6 °C 1016.1 hPa Calm     88 % 0 mm
01:24 4.4 °C 2.8 °C 1016.1 hPa Calm     89 % 0 mm
01:29 4.5 °C 2.8 °C 1016.1 hPa Calm     89 % 0 mm
01:34 4.5 °C 2.7 °C 1016.5 hPa Calm     88 % 0 mm
01:39 4.4 °C 2.6 °C 1016.5 hPa Calm     88 % 0 mm
01:44 3.9 °C 1.9 °C 1016.5 hPa Calm     87 % 0 mm
01:49 3.7 °C 1.9 °C 1016.5 hPa Calm     88 % 0 mm
01:54 3.5 °C 1.7 °C 1016.5 hPa Calm     88 % 0 mm
01:59 3.4 °C 1.6 °C 1016.5 hPa Calm     88 % 0 mm
02:04 3.2 °C 1.4 °C 1016.5 hPa Calm     88 % 0 mm
02:09 3.1 °C 1.4 °C 1016.5 hPa Calm     89 % 0 mm
02:14 2.9 °C 1.3 °C 1016.5 hPa Calm     89 % 0 mm
02:19 2.8 °C 1.3 °C 1016.8 hPa Calm     90 % 0 mm
02:24 2.9 °C 1.6 °C 1016.8 hPa Calm     91 % 0 mm
02:29 2.9 °C 1.6 °C 1016.8 hPa Calm     91 % 0 mm
02:34 2.8 °C 1.3 °C 1016.8 hPa Calm     90 % 0 mm
02:39 2.7 °C 1.2 °C 1016.8 hPa Calm     90 % 0 mm
02:44 2.4 °C 0.8 °C 1016.8 hPa Calm     89 % 0 mm
02:49 2.3 °C 0.8 °C 1017.2 hPa Calm     90 % 0 mm
02:54 2.3 °C 0.8 °C 1016.8 hPa Calm     90 % 0 mm
02:59 2.3 °C 0.9 °C 1016.8 hPa Calm     91 % 0 mm
03:04 2.2 °C 0.9 °C 1017.2 hPa Calm     91 % 0 mm
03:09 2.2 °C 0.9 °C 1017.2 hPa Calm     91 % 0 mm
03:14 2.2 °C 0.8 °C 1017.2 hPa Calm     91 % 0 mm
03:19 2.2 °C 0.8 °C 1017.2 hPa Calm     91 % 0 mm
03:24 2.3 °C 1.1 °C 1017.2 hPa Calm     92 % 0 mm
03:29 2.4 °C 1.2 °C 1017.2 hPa Calm     92 % 0 mm
03:34 2.4 °C 1.2 °C 1017.2 hPa Calm     92 % 0 mm
03:39 2.4 °C 1.3 °C 1017.5 hPa Calm     92 % 0 mm
03:44 2.4 °C 1.2 °C 1017.5 hPa Calm     92 % 0 mm
03:49 2.4 °C 1.3 °C 1017.8 hPa Calm     92 % 0 mm
03:54 2.6 °C 1.4 °C 1017.8 hPa Calm     92 % 0 mm
03:59 2.8 °C 1.6 °C 1017.8 hPa Calm     92 % 0 mm
04:04 2.9 °C 1.8 °C 1017.8 hPa Calm     92 % 0 mm
04:09 3.1 °C 1.9 °C 1017.8 hPa Calm     92 % 0 mm
04:14 3.1 °C 1.8 °C 1017.8 hPa Calm     91 % 0 mm
04:19 3.1 °C 1.6 °C 1018.2 hPa Calm     90 % 0 mm
04:24 3.1 °C 1.8 °C 1018.2 hPa Calm     91 % 0 mm
04:29 2.9 °C 1.4 °C 1018.2 hPa Calm     90 % 0 mm
04:34 3.1 °C 1.7 °C 1018.2 hPa Calm     91 % 0 mm
04:39 3.1 °C 1.8 °C 1018.2 hPa Calm     91 % 0 mm
04:44 3.2 °C 1.8 °C 1018.2 hPa Calm     91 % 0 mm
04:49 3.2 °C 1.7 °C 1018.2 hPa Calm     90 % 0 mm
04:54 3.2 °C 1.7 °C 1018.2 hPa Calm     90 % 0 mm
04:59 3.1 °C 1.6 °C 1018.2 hPa Calm     90 % 0 mm
05:04 3.2 °C 1.7 °C 1018.2 hPa Calm     90 % 0 mm
05:09 3.1 °C 1.5 °C 1018.5 hPa Calm     89 % 0 mm
05:14 2.7 °C 0.9 °C 1018.5 hPa Calm     88 % 0 mm
05:19 2.2 °C 0.6 °C 1018.5 hPa Calm     89 % 0 mm
05:24 2.1 °C 0.6 °C 1018.5 hPa Calm     90 % 0 mm
05:29 2.1 °C 0.7 °C 1018.8 hPa Calm     91 % 0 mm
05:34 2.1 °C 0.7 °C 1018.8 hPa Calm     91 % 0 mm
05:39 1.9 °C 0.6 °C 1018.8 hPa Calm     91 % 0 mm
05:44 2 °C 0.7 °C 1018.8 hPa Calm     91 % 0 mm
05:49 1.9 °C 0.6 °C 1018.8 hPa Calm     91 % 0 mm
05:54 1.8 °C 0.5 °C 1018.8 hPa Calm     91 % 0 mm
05:59 1.6 °C 0.2 °C 1018.8 hPa Calm     90 % 0 mm
06:04 1.4 °C -0.1 °C 1019.2 hPa Calm     90 % 0 mm
06:09 1.3 °C -0.1 °C 1019.2 hPa Calm     91 % 0 mm
06:14 1.5 °C 0.3 °C 1019.2 hPa Calm     92 % 0 mm
06:19 1.6 °C 0.4 °C 1019.2 hPa Calm     92 % 0 mm
06:24 1.4 °C 0.1 °C 1019.2 hPa Calm     91 % 0 mm
06:29 1.4 °C 0.1 °C 1019.2 hPa Calm     91 % 0 mm
06:34 1.4 °C 0.1 °C 1019.5 hPa Calm     91 % 0 mm
06:39 1.3 °C -0.1 °C 1019.5 hPa Calm     91 % 0 mm
06:44 1.1 °C -0.4 °C 1019.5 hPa Calm     90 % 0 mm
06:49 1.1 °C -0.3 °C 1019.9 hPa Calm     90 % 0 mm
06:54 1.1 °C -0.3 °C 1019.9 hPa Calm     90 % 0 mm
06:59 1.3 °C 0 °C 1019.9 hPa Calm     91 % 0 mm
07:04 1.6 °C 0.3 °C 1019.9 hPa Calm     91 % 0 mm
07:09 1.7 °C 0.2 °C 1019.9 hPa Calm     90 % 0 mm
07:14 1.7 °C 0.4 °C 1019.9 hPa Calm     91 % 0 mm
07:19 1.8 °C 0.5 °C 1020.2 hPa Calm     91 % 0 mm
07:24 2.1 °C 0.9 °C 1020.2 hPa Calm     92 % 0 mm
07:29 2.3 °C 1 °C 1020.2 hPa Calm     91 % 0 mm
07:34 2.6 °C 1.2 °C 1020.2 hPa Calm     91 % 0 mm
07:39 2.8 °C 1.4 °C 1020.5 hPa Calm     91 % 0 mm
07:44 3.1 °C 1.8 °C 1020.5 hPa Calm     91 % 0 mm
07:49 3.7 °C 2.4 °C 1020.5 hPa Calm     91 % 0 mm
07:54 4.9 °C 3.4 °C 1020.9 hPa Calm     90 % 0 mm
08:00 5.8 °C 3.8 °C 1020.9 hPa Calm     87 % 0 mm
08:05 6.5 °C 4 °C 1020.9 hPa Calm     84 % 0 mm
08:10 6.9 °C 4.1 °C 1020.9 hPa Calm     82 % 0 mm
08:15 7.3 °C 4.4 °C 1020.9 hPa Calm     82 % 0 mm
08:20 7.8 °C 4.7 °C 1021.2 hPa Calm     81 % 0 mm
08:25 8.3 °C 5.1 °C 1021.2 hPa SE 1.9 km/h 1.9 km/h 80 % 0 mm
08:30 8.7 °C 4.9 °C 1021.2 hPa Calm     77 % 0 mm
08:35 8.8 °C 5 °C 1021.2 hPa Calm     77 % 0 mm
08:40 8.8 °C 4.8 °C 1021.2 hPa Calm     76 % 0 mm
08:45 8.8 °C 5.2 °C 1021.6 hPa Calm     78 % 0 mm
08:50 9 °C 4.8 °C 1021.6 hPa NW 1.9 km/h 1.9 km/h 75 % 0 mm
08:55 9.1 °C 4.9 °C 1021.6 hPa Calm     75 % 0 mm
09:00 9.4 °C 4.8 °C 1021.6 hPa West 1.9 km/h   73 % 0 mm
09:05 9.8 °C 4.8 °C 1021.9 hPa Calm     71 % 0 mm
09:10 10.1 °C 4.6 °C 1021.6 hPa Calm     69 % 0 mm
09:15 10.2 °C 4.6 °C 1021.9 hPa Calm     68 % 0 mm
09:20 10.6 °C 4.5 °C 1021.9 hPa Calm     66 % 0 mm
09:25 10.7 °C 5.1 °C 1021.9 hPa Calm     68 % 0 mm
09:30 11.1 °C 5.2 °C 1021.9 hPa WNW 1.9 km/h   67 % 0 mm
09:35 11.2 °C 4.8 °C 1021.9 hPa Calm     65 % 0 mm
09:40 11.4 °C 5.1 °C 1021.9 hPa West 1.9 km/h   65 % 0 mm
09:45 11.5 °C 4.7 °C 1021.9 hPa WSW 1.9 km/h 1.9 km/h 63 % 0 mm
09:50 11.7 °C 4.9 °C 1021.9 hPa WNW 1.9 km/h 1.9 km/h 63 % 0 mm
09:55 12 °C 4.2 °C 1021.9 hPa NW 5.6 km/h 5.6 km/h 59 % 0 mm
10:00 12.2 °C 4.4 °C 1021.9 hPa NW 3.7 km/h 3.7 km/h 59 % 0 mm
10:05 12.3 °C 4.5 °C 1021.9 hPa WNW 1.6 km/h 1.6 km/h 59 % 0 mm
10:10 12.4 °C 4.3 °C 1021.9 hPa NW 5.6 km/h 5.6 km/h 58 % 0 mm
10:15 12.5 °C 4.2 °C 1021.9 hPa WNW 3.7 km/h 3.7 km/h 57 % 0 mm
10:20 12.7 °C 4.1 °C 1021.9 hPa NW 3.7 km/h 3.7 km/h 56 % 0 mm
10:25 12.8 °C 4 °C 1021.9 hPa West 1.9 km/h 1.9 km/h 55 % 0 mm
10:30 13.1 °C 4 °C 1021.9 hPa NW 3.7 km/h 3.7 km/h 54 % 0 mm
10:35 13.3 °C 3.6 °C 1021.6 hPa WNW 3.7 km/h 3.7 km/h 52 % 0 mm
10:40 13.6 °C 4.2 °C 1021.9 hPa NW 3.7 km/h 3.7 km/h 53 % 0 mm
10:45 13.7 °C 4.1 °C 1021.9 hPa WNW 3.7 km/h 3.7 km/h 52 % 0 mm
10:50 13.9 °C 3.7 °C 1021.6 hPa NW 1.9 km/h 1.9 km/h 50 % 0 mm
10:55 14 °C 3.4 °C 1021.6 hPa WNW 1.9 km/h 1.9 km/h 49 % 0 mm
11:00 14.1 °C 3.3 °C 1021.6 hPa West 5.6 km/h 5.6 km/h 48 % 0 mm
11:05 14.3 °C 3.7 °C 1021.6 hPa NW 5.6 km/h 5.6 km/h 49 % 0 mm
11:10 14.6 °C 3.9 °C 1021.6 hPa NW 3.7 km/h 3.7 km/h 49 % 0 mm
11:15 14.7 °C 3.4 °C 1021.6 hPa NNW 1.9 km/h   47 % 0 mm
11:20 15 °C 3.4 °C 1021.6 hPa NW 5.6 km/h 5.6 km/h 46 % 0 mm
11:25 15.2 °C 3 °C 1021.2 hPa North 1.9 km/h 1.9 km/h 44 % 0 mm
11:30 15.3 °C 3.8 °C 1021.2 hPa NW 3.7 km/h 3.7 km/h 46 % 0 mm
11:35 15.4 °C 4.2 °C 1021.2 hPa NW 3.2 km/h 3.2 km/h 47 % 0 mm
11:40 15.4 °C 3.6 °C 1021.2 hPa NW 9.3 km/h 9.3 km/h 45 % 0 mm
11:45 15.5 °C 3.6 °C 1021.2 hPa Calm   0.2 km/h 45 % 0 mm
11:50 15.6 °C 4 °C 1021.2 hPa Calm     46 % 0 mm
11:55 15.8 °C 4.8 °C 1021.2 hPa West 5.6 km/h 5.6 km/h 48 % 0 mm
12:00 15.9 °C 4.6 °C 1021.2 hPa WNW 5.6 km/h 5.6 km/h 47 % 0 mm
12:05 15.8 °C 4.5 °C 1020.9 hPa NW 5.6 km/h 5.6 km/h 47 % 0 mm
12:10 15.8 °C 3.9 °C 1020.9 hPa NNW 3.7 km/h 3.7 km/h 45 % 0 mm
12:15 16 °C 4.7 °C 1020.9 hPa SE 5.6 km/h 5.6 km/h 47 % 0 mm
12:20 16 °C 4.7 °C 1020.9 hPa Calm   0.6 km/h 47 % 0 mm
12:25 16.2 °C 4.8 °C 1020.9 hPa North 5.6 km/h 5.6 km/h 47 % 0 mm
12:30 16.3 °C 4.9 °C 1020.9 hPa NW 5.6 km/h 5.6 km/h 47 % 0 mm
12:35 16.4 °C 4.8 °C 1020.5 hPa NW 5.6 km/h 5.6 km/h 46 % 0 mm
12:40 16.4 °C 4.4 °C 1020.5 hPa NW 7.4 km/h 7.4 km/h 45 % 0 mm
12:45 16.3 °C 4.9 °C 1020.5 hPa NNW 8 km/h 8 km/h 47 % 0 mm
12:50 16.4 °C 4.2 °C 1020.5 hPa NW 5.6 km/h 5.6 km/h 44 % 0 mm
12:56 16.4 °C 4.2 °C 1020.5 hPa WNW 5.6 km/h 5.6 km/h 44 % 0 mm
13:01 16.5 °C 4.2 °C 1020.5 hPa WNW 7.4 km/h 7.4 km/h 44 % 0 mm
13:06 16.6 °C 4.3 °C 1020.5 hPa WNW 5.6 km/h 5.6 km/h 44 % 0 mm
13:11 16.7 °C 3.4 °C 1020.5 hPa NW 5.6 km/h 5.6 km/h 41 % 0 mm
13:16 16.7 °C 4.4 °C 1020.5 hPa NW 11.1 km/h 11.1 km/h 44 % 0 mm
13:21 16.8 °C 4.1 °C 1020.2 hPa West 6.4 km/h 6.4 km/h 43 % 0 mm
13:26 16.8 °C 4.1 °C 1020.5 hPa NW 5.6 km/h 5.6 km/h 43 % 0 mm
13:31 17.1 °C 4.1 °C 1020.5 hPa NNW 9.7 km/h 9.7 km/h 42 % 0 mm
13:36 17 °C 4 °C 1020.2 hPa NW 9.7 km/h 9.7 km/h 42 % 0 mm
13:41 16.9 °C 3.9 °C 1020.2 hPa NW 5.6 km/h 5.6 km/h 42 % 0 mm
13:46 17 °C 4.3 °C 1020.2 hPa NW 6.4 km/h 6.4 km/h 43 % 0 mm
13:51 17.1 °C 4.1 °C 1020.2 hPa NNW 7.4 km/h 7.4 km/h 42 % 0 mm
13:56 17.2 °C 4.1 °C 1020.2 hPa NNW 8 km/h 8 km/h 42 % 0 mm
14:01 16.9 °C 3.9 °C 1020.2 hPa WNW 3.7 km/h 3.7 km/h 42 % 0 mm
14:06 16.8 °C 4.2 °C 1020.2 hPa WNW 5.6 km/h 5.6 km/h 43 % 0 mm
14:11 16.8 °C 4.2 °C 1020.2 hPa NNW 9.3 km/h 9.3 km/h 43 % 0 mm
14:16 16.9 °C 4.3 °C 1020.2 hPa WNW 7.4 km/h 7.4 km/h 43 % 0 mm
14:21 16.9 °C 4.6 °C 1020.2 hPa NW 5.6 km/h 5.6 km/h 44 % 0 mm
14:26 17.1 °C 4.4 °C 1020.2 hPa NW 5.6 km/h 5.6 km/h 43 % 0 mm
14:31 17.1 °C 4.4 °C 1020.2 hPa NW 5.6 km/h 5.6 km/h 43 % 0 mm
14:36 17.2 °C 4.1 °C 1020.2 hPa West 9.3 km/h 9.3 km/h 42 % 0 mm
14:41 17.2 °C 4.1 °C 1020.2 hPa NNW 5.6 km/h 5.6 km/h 42 % 0 mm
14:46 17.3 °C 3.9 °C 1020.2 hPa NNW 5.6 km/h 5.6 km/h 41 % 0 mm
14:51 17.3 °C 3.2 °C 1020.2 hPa NW 5.6 km/h 5.6 km/h 39 % 0 mm
14:56 17.5 °C 4.1 °C 1020.2 hPa NW 5.6 km/h 5.6 km/h 41 % 0 mm
15:01 17.3 °C 4.2 °C 1020.2 hPa WNW 4.8 km/h 4.8 km/h 42 % 0 mm
15:06 17.4 °C 4.1 °C 1020.2 hPa NNE 5.6 km/h 5.6 km/h 41 % 0 mm
15:11 17.3 °C 3.9 °C 1020.2 hPa WNW 9.3 km/h 9.3 km/h 41 % 0 mm
15:16 17.4 °C 4.3 °C 1020.2 hPa NW 11.1 km/h 11.1 km/h 42 % 0 mm
15:21 17.2 °C 3.5 °C 1020.2 hPa WNW 5.6 km/h 5.6 km/h 40 % 0 mm
15:26 17.3 °C 4.2 °C 1020.2 hPa NW 5.6 km/h 5.6 km/h 42 % 0 mm
15:31 17.2 °C 3.8 °C 1020.2 hPa WNW 4.8 km/h 4.8 km/h 41 % 0 mm
15:36 17.2 °C 3.1 °C 1020.2 hPa NW 7.4 km/h 7.4 km/h 39 % 0 mm
15:41 16.9 °C 3.9 °C 1020.2 hPa NW 5.6 km/h 5.6 km/h 42 % 0 mm
15:46 16.7 °C 3.1 °C 1020.2 hPa NNW 7.4 km/h 7.4 km/h 40 % 0 mm
15:51 16.9 °C 3.6 °C 1020.2 hPa NW 5.6 km/h 5.6 km/h 41 % 0 mm
15:56 16.9 °C 2.9 °C 1020.2 hPa NNW 5.6 km/h 5.6 km/h 39 % 0 mm
16:01 16.9 °C 3.2 °C 1020.2 hPa WNW 5.6 km/h 5.6 km/h 40 % 0 mm
16:06 17 °C 2.9 °C 1020.2 hPa WNW 9.3 km/h 9.3 km/h 39 % 0 mm
16:11 17 °C 2.9 °C 1020.2 hPa NW 5.6 km/h 5.6 km/h 39 % 0 mm
16:16 16.9 °C 2.8 °C 1020.2 hPa NW 3.7 km/h 3.7 km/h 39 % 0 mm
16:21 16.9 °C 2.9 °C 1020.2 hPa WNW 5.6 km/h 5.6 km/h 39 % 0 mm
16:26 16.8 °C 2.8 °C 1020.2 hPa WNW 3.7 km/h 3.7 km/h 39 % 0 mm
16:31 16.8 °C 2.7 °C 1020.2 hPa WNW 5.6 km/h 5.6 km/h 39 % 0 mm
16:36 16.7 °C 2.6 °C 1020.2 hPa NW 5.6 km/h 5.6 km/h 39 % 0 mm
16:41 16.7 °C 2.6 °C 1020.2 hPa NW 5.6 km/h 5.6 km/h 39 % 0 mm
16:46 16.6 °C 2.6 °C 1020.2 hPa NNW 4.8 km/h 4.8 km/h 39 % 0 mm
16:51 16.5 °C 2.5 °C 1020.2 hPa NNW 3.7 km/h 3.7 km/h 39 % 0 mm
16:56 16.4 °C 2.1 °C 1020.2 hPa West 5.6 km/h 5.6 km/h 38 % 0 mm
17:01 16.3 °C 1.6 °C 1020.2 hPa WNW 5.6 km/h 5.6 km/h 37 % 0 mm
17:06 16.2 °C 1.8 °C 1020.2 hPa NW 5.6 km/h 5.6 km/h 38 % 0 mm
17:11 16 °C 2.1 °C 1020.2 hPa NW 3.7 km/h 3.7 km/h 39 % 0 mm
17:16 15.8 °C 2.2 °C 1020.2 hPa NNW 3.7 km/h 3.7 km/h 40 % 0 mm
17:21 15.8 °C 2.2 °C 1020.2 hPa NW 3.7 km/h 3.7 km/h 40 % 0 mm
17:26 15.7 °C 2.1 °C 1020.5 hPa North 5.6 km/h 5.6 km/h 40 % 0 mm
17:31 15.5 °C 1.9 °C 1020.5 hPa WNW 5.6 km/h 5.6 km/h 40 % 0 mm
17:36 15.3 °C 1.7 °C 1020.5 hPa NW 3.7 km/h   40 % 0 mm
17:41 15.1 °C 1.9 °C 1020.5 hPa WNW 1.9 km/h   41 % 0 mm
17:46 14.9 °C 1.7 °C 1020.5 hPa NW 1.9 km/h   41 % 0 mm
17:51 14.7 °C 1.9 °C 1020.5 hPa Calm     42 % 0 mm
17:56 14.5 °C 1.7 °C 1020.5 hPa Calm   0.3 km/h 42 % 0 mm
18:01 14.3 °C 1.8 °C 1020.5 hPa WNW 1.6 km/h 1.6 km/h 43 % 0 mm
18:06 14.1 °C 2 °C 1020.5 hPa Calm   0.2 km/h 44 % 0 mm
18:11 13.8 °C 1.8 °C 1020.5 hPa Calm     44 % 0 mm
18:16 13.7 °C 2 °C 1020.5 hPa Calm   0.2 km/h 45 % 0 mm
18:21 13.7 °C 1.9 °C 1020.9 hPa Calm   0.2 km/h 45 % 0 mm
18:26 13.6 °C 1.9 °C 1020.9 hPa Calm     45 % 0 mm
18:31 13.5 °C 1.8 °C 1020.9 hPa Calm     45 % 0 mm
18:36 13.2 °C 1.8 °C 1020.9 hPa Calm     46 % 0 mm
18:41 12.9 °C 2.7 °C 1020.9 hPa Calm     50 % 0 mm
18:46 12.6 °C 2.9 °C 1021.2 hPa Calm     52 % 0 mm
18:51 12 °C 3.2 °C 1021.2 hPa Calm     55 % 0 mm
18:56 11.6 °C 2.8 °C 1021.2 hPa Calm     55 % 0 mm
19:01 11.3 °C 2.8 °C 1021.2 hPa Calm     56 % 0 mm
19:06 11.1 °C 2.9 °C 1021.2 hPa Calm     57 % 0 mm
19:11 11 °C 2.8 °C 1021.2 hPa Calm     57 % 0 mm
19:16 10.9 °C 2.9 °C 1021.2 hPa Calm     58 % 0 mm
19:22 11 °C 2.6 °C 1021.2 hPa Calm     56 % 0 mm
19:27 11.3 °C 2.6 °C 1021.2 hPa Calm     55 % 0 mm
19:32 11.5 °C 2.5 °C 1021.6 hPa Calm     54 % 0 mm
19:37 11.7 °C 2.4 °C 1021.2 hPa Calm   0.2 km/h 53 % 0 mm
19:42 11.9 °C 2.6 °C 1021.2 hPa Calm     53 % 0 mm
19:47 11.9 °C 2.4 °C 1021.2 hPa Calm     52 % 0 mm
19:52 11.8 °C 2.6 °C 1021.2 hPa Calm     53 % 0 mm
19:57 11.6 °C 2.3 °C 1021.2 hPa Calm     53 % 0 mm
20:02 11.5 °C 2.2 °C 1021.2 hPa Calm     53 % 0 mm
20:07 11.3 °C 2.3 °C 1021.6 hPa Calm     54 % 0 mm
20:12 11.3 °C 2.3 °C 1021.2 hPa Calm     54 % 0 mm
20:17 11.3 °C 2.3 °C 1021.2 hPa NW 1.9 km/h 1.9 km/h 54 % 0 mm
20:22 11.3 °C 2.3 °C 1021.2 hPa Calm     54 % 0 mm
20:27 11.3 °C 2.3 °C 1021.2 hPa Calm     54 % 0 mm
20:32 11.3 °C 2.3 °C 1021.2 hPa Calm     54 % 0 mm
20:37 11.3 °C 2.3 °C 1021.2 hPa NW 1.9 km/h   54 % 0 mm
20:42 11.4 °C 2.2 °C 1021.2 hPa NW 1.9 km/h 1.9 km/h 53 % 0 mm
20:47 11.6 °C 2 °C 1021.2 hPa NW 1.9 km/h 1.9 km/h 52 % 0 mm
20:52 11.6 °C 2 °C 1021.2 hPa Calm     52 % 0 mm
20:57 11.4 °C 2.2 °C 1021.2 hPa Calm     53 % 0 mm
21:02 11.4 °C 2.1 °C 1021.2 hPa Calm     53 % 0 mm
21:07 11.2 °C 2.2 °C 1021.2 hPa Calm     54 % 0 mm
21:12 11 °C 2.1 °C 1021.2 hPa Calm     54 % 0 mm
21:17 11.1 °C 2.2 °C 1021.2 hPa NNW 3.7 km/h 3.7 km/h 54 % 0 mm
21:22 11.3 °C 2.1 °C 1021.2 hPa NW 5.6 km/h 5.6 km/h 53 % 0 mm
21:27 11.4 °C 2.1 °C 1021.2 hPa Calm     53 % 0 mm
21:32 11.4 °C 2.1 °C 1020.9 hPa NNW 5.6 km/h 5.6 km/h 53 % 0 mm
21:37 11.4 °C 2.2 °C 1020.9 hPa NW 3.7 km/h 3.7 km/h 53 % 0 mm
21:42 11.4 °C 2.2 °C 1020.9 hPa NW 5.6 km/h 5.6 km/h 53 % 0 mm
21:47 11.3 °C 2.1 °C 1020.9 hPa NW 1.9 km/h 1.9 km/h 53 % 0 mm
21:52 11.2 °C 2.2 °C 1020.9 hPa North 1.9 km/h 1.9 km/h 54 % 0 mm
21:57 11.3 °C 2.1 °C 1020.9 hPa NNW 1.9 km/h 1.9 km/h 53 % 0 mm
22:02 11.3 °C 2.1 °C 1020.9 hPa NW 5.6 km/h 5.6 km/h 53 % 0 mm
22:07 11.3 °C 2.1 °C 1020.9 hPa NW 1.9 km/h 1.9 km/h 53 % 0 mm
22:12 11.3 °C 2.1 °C 1021.2 hPa NW 1.9 km/h   53 % 0 mm
22:17 11.3 °C 2.1 °C 1021.2 hPa WNW 1.9 km/h   53 % 0 mm
22:22 11.2 °C 2.2 °C 1021.2 hPa Calm     54 % 0 mm
22:27 11.1 °C 2.3 °C 1021.2 hPa Calm     55 % 0 mm
22:32 10.9 °C 2.2 °C 1021.2 hPa Calm     55 % 0 mm
22:37 10.8 °C 2.4 °C 1021.2 hPa Calm     56 % 0 mm
22:42 10.8 °C 2.4 °C 1021.2 hPa Calm     56 % 0 mm
22:47 10.8 °C 2.4 °C 1021.2 hPa Calm     56 % 0 mm
22:52 10.8 °C 2.3 °C 1021.2 hPa Calm     56 % 0 mm
22:57 10.7 °C 2.7 °C 1021.2 hPa Calm     58 % 0 mm
23:02 10.7 °C 2.5 °C 1021.2 hPa Calm     57 % 0 mm
23:07 10.7 °C 2.5 °C 1021.2 hPa Calm   0.2 km/h 57 % 0 mm
23:12 10.6 °C 2.4 °C 1021.2 hPa Calm     57 % 0 mm
23:17 10.6 °C 2.6 °C 1021.2 hPa Calm     58 % 0 mm
23:22 10.4 °C 2.5 °C 1021.2 hPa Calm     58 % 0 mm
23:27 10.3 °C 2.6 °C 1021.2 hPa Calm     59 % 0 mm
23:32 10 °C 3.1 °C 1021.2 hPa Calm     62 % 0 mm
23:37 9.4 °C 2.9 °C 1021.2 hPa Calm     64 % 0 mm
23:42 9 °C 3 °C 1021.2 hPa Calm     66 % 0 mm
23:47 8.8 °C 3 °C 1021.2 hPa Calm     67 % 0 mm
23:52 8.7 °C 2.9 °C 1021.2 hPa Calm     67 % 0 mm
23:57 8.4 °C 3 °C 1021.6 hPa Calm     69 % 0 mm
Park Place, Exeter, Tulare County, California, USA
Compliments of Weather Underground - 2.75 mb